Time;durP1;ratioP1;P1;durP2;ratioP2;P2;SDS_P1;SDS_P2;PMS_P1;PMS_P2;Temp;Humidity;BMP_temperature;BMP_pressure;BME280_temperature;BME280_humidity;BME280_pressure;Samples;Min_cycle;Max_cycle;Signal;HPM_P1;HPM_P2
2022/07/25 00:02:00;;;;;;;9.70;8.70;;;25.70;47.50;;;25.87;41.93;97411.31;4987031;28;20068;-51
2022/07/25 00:04:28;;;;;;;9.27;8.38;;;25.70;47.70;;;25.86;42.31;97406.94;4988240;28;20061;-53
2022/07/25 00:06:56;;;;;;;10.27;9.32;;;25.70;47.80;;;25.85;42.05;97410.75;4987105;28;20210;-54
2022/07/25 00:09:24;;;;;;;9.73;8.82;;;25.70;47.80;;;25.84;42.29;97404.50;4987297;28;20057;-53
2022/07/25 00:11:52;;;;;;;9.93;8.93;;;25.60;47.80;;;25.83;42.30;97402.84;4988118;28;20064;-55
2022/07/25 00:14:20;;;;;;;10.15;9.15;;;25.60;47.80;;;25.80;42.50;97408.81;4987426;28;20060;-52
2022/07/25 00:16:47;;;;;;;8.80;7.95;;;25.60;48.00;;;25.78;42.38;97402.00;4985983;28;20054;-55
2022/07/25 00:19:16;;;;;;;10.45;9.45;;;25.60;48.00;;;25.76;42.40;97410.44;4986530;28;20267;-50
2022/07/25 00:21:44;;;;;;;9.20;8.20;;;25.60;48.10;;;25.76;42.55;97410.44;4986281;28;20072;-54
2022/07/25 00:24:12;;;;;;;9.85;8.95;;;25.60;48.20;;;25.73;42.64;97406.34;4987527;28;20062;-53
2022/07/25 00:26:39;;;;;;;9.90;9.00;;;25.60;48.20;;;25.73;42.58;97406.34;4987367;28;20056;-53
2022/07/25 00:29:07;;;;;;;9.95;9.05;;;25.60;48.40;;;25.66;42.85;97405.75;4987330;28;20061;-54
2022/07/25 00:31:35;;;;;;;10.45;9.32;;;25.40;48.80;;;25.60;42.83;97406.81;4987309;28;20256;-52
2022/07/25 00:34:03;;;;;;;9.88;8.95;;;25.30;49.10;;;25.51;42.97;97400.22;4986123;28;20053;-53
2022/07/25 00:36:32;;;;;;;9.52;8.63;;;25.20;49.50;;;25.44;43.04;97392.28;4987539;28;20054;-51
2022/07/25 00:39:00;;;;;;;11.85;9.40;;;25.10;49.70;;;25.41;42.93;97390.06;4987308;28;20062;-53
2022/07/25 00:41:27;;;;;;;8.63;7.82;;;25.10;49.70;;;25.39;43.19;97394.16;4987660;28;20042;-54
2022/07/25 00:43:55;;;;;;;9.85;8.85;;;25.10;49.80;;;25.35;43.39;97393.84;4987204;28;20064;-50
2022/07/25 00:46:23;;;;;;;9.73;8.50;;;25.00;49.80;;;25.32;42.94;97397.94;5017824;28;20386;-52
2022/07/25 00:48:53;;;;;;;9.85;8.98;;;25.00;49.70;;;25.35;43.15;97396.56;4986937;28;20062;-53
2022/07/25 00:51:30;;;;;;;10.00;9.10;;;25.10;49.50;;;25.36;43.27;97395.50;4986643;28;20069;-50
2022/07/25 00:53:59;;;;;;;10.13;8.38;;;25.10;49.90;;;25.31;43.09;97390.81;4987166;28;20302;-49
2022/07/25 00:56:27;;;;;;;9.55;8.55;;;25.00;49.70;;;25.30;43.23;97397.38;5018245;28;20054;-54
2022/07/25 00:58:55;;;;;;;9.18;8.35;;;25.00;49.70;;;25.29;43.07;97389.47;5017340;28;20054;-54
2022/07/25 01:01:23;;;;;;;8.93;8.10;;;25.00;49.80;;;25.25;43.05;97391.06;4986478;28;20070;-49
2022/07/25 01:03:51;;;;;;;9.85;8.90;;;24.90;50.00;;;25.21;43.33;97385.28;4986896;28;20054;-52
2022/07/25 01:06:21;;;;;;;8.95;8.23;;;24.90;50.20;;;25.21;43.33;97388.00;4986373;28;20054;-51
2022/07/25 01:08:52;;;;;;;9.77;8.88;;;24.90;50.20;;;25.21;43.39;97384.47;4987059;28;20508;-54
2022/07/25 01:11:21;;;;;;;15.02;9.68;;;24.90;50.30;;;25.19;43.53;97376.56;5016532;28;20047;-52
2022/07/25 01:13:49;;;;;;;11.05;10.05;;;24.90;50.30;;;25.19;43.57;97378.47;4987259;28;20049;-51
2022/07/25 01:16:17;;;;;;;9.93;8.80;;;24.90;50.40;;;25.17;43.76;97367.03;4988515;28;20061;-51
2022/07/25 01:18:45;;;;;;;10.10;9.18;;;24.80;50.40;;;25.11;43.87;97369.69;4986350;28;20088;-53
2022/07/25 01:21:13;;;;;;;9.60;8.70;;;24.80;50.70;;;25.08;43.89;97363.94;4985846;28;20056;-53
2022/07/25 01:23:41;;;;;;;9.27;8.40;;;24.70;50.90;;;25.04;44.08;97365.56;4986475;28;20060;-54
2022/07/25 01:26:09;;;;;;;11.15;9.20;;;24.70;51.10;;;25.02;44.17;97363.09;4986727;28;20060;-52
2022/07/25 01:28:37;;;;;;;10.48;9.43;;;24.70;51.20;;;24.98;44.51;97361.16;4986325;28;20046;-50
2022/07/25 01:31:05;;;;;;;11.60;9.35;;;24.70;51.40;;;24.96;44.53;97361.41;4990837;28;20053;-54
2022/07/25 01:33:33;;;;;;;10.23;9.32;;;24.60;51.30;;;24.96;44.64;97361.41;4989737;28;20050;-52
2022/07/25 01:36:01;;;;;;;11.30;10.20;;;24.70;51.40;;;24.91;44.68;97364.09;4989958;28;20281;-55
2022/07/25 01:38:29;;;;;;;10.43;9.40;;;24.60;51.60;;;24.88;44.88;97360.00;4988526;28;20061;-54
2022/07/25 01:40:56;;;;;;;10.68;9.63;;;24.70;51.60;;;24.82;44.88;97369.22;4988974;28;20046;-52
2022/07/25 01:43:24;;;;;;;11.77;9.73;;;24.70;51.50;;;24.82;45.05;97360.22;4989043;28;20056;-54
2022/07/25 01:45:52;;;;;;;10.63;9.52;;;24.70;51.60;;;24.82;45.01;97365.66;4989711;28;20050;-52
2022/07/25 01:48:20;;;;;;;10.43;9.40;;;24.70;51.50;;;24.84;45.00;97366.22;4989629;28;20070;-52
2022/07/25 01:50:48;;;;;;;9.68;8.77;;;24.70;51.40;;;24.85;45.09;97363.22;4989267;28;20046;-54
2022/07/25 01:53:16;;;;;;;10.32;9.32;;;24.70;51.40;;;24.82;44.98;97360.22;4989909;28;20280;-55
2022/07/25 01:55:45;;;;;;;10.10;9.20;;;24.70;51.30;;;24.82;45.19;97361.03;4990073;28;20054;-53
2022/07/25 01:58:13;;;;;;;11.00;9.45;;;24.70;51.40;;;24.82;45.05;97358.31;4990740;28;20221;-52
2022/07/25 02:00:41;;;;;;;9.75;8.75;;;24.70;51.50;;;24.79;45.19;97364.28;4989440;28;20437;-55
2022/07/25 02:06:06;;;;;;;10.02;9.18;;;24.60;51.80;;;24.71;45.05;97353.88;4989653;28;20054;-55
2022/07/25 02:08:34;;;;;;;10.18;9.10;;;24.50;52.30;;;24.66;45.48;97345.66;5020356;28;20046;-55
2022/07/25 02:11:02;;;;;;;10.70;9.60;;;24.50;52.10;;;24.64;45.57;97342.38;4989247;28;20358;-50
2022/07/25 02:13:30;;;;;;;11.32;9.35;;;24.50;52.20;;;24.63;45.58;97338.84;4989319;28;20042;-52
2022/07/25 02:15:58;;;;;;;10.32;9.13;;;24.50;52.20;;;24.60;45.73;97339.34;4989759;28;20064;-50
2022/07/25 02:18:26;;;;;;;10.45;9.32;;;24.40;52.40;;;24.55;45.62;97337.41;5019991;28;20061;-53
2022/07/25 02:20:54;;;;;;;10.88;9.77;;;24.30;52.70;;;24.54;45.99;97334.94;4988406;28;20054;-53
2022/07/25 02:23:28;;;;;;;10.93;9.77;;;24.30;53.00;;;24.52;45.98;97331.66;4989916;28;20072;-55
2022/07/25 02:25:55;;;;;;;11.45;9.85;;;24.30;53.50;;;24.48;46.32;97327.78;4987990;28;20054;-51
2022/07/25 02:28:23;;;;;;;10.88;9.77;;;24.20;53.30;;;24.46;46.27;97327.22;4988831;28;20058;-52
2022/07/25 02:30:51;;;;;;;10.50;9.48;;;24.10;53.50;;;24.43;46.47;97323.13;4988569;28;20408;-54
2022/07/25 02:33:19;;;;;;;12.68;9.38;;;24.10;53.90;;;24.37;46.44;97316.81;4988467;28;20494;-55
2022/07/25 02:35:47;;;;;;;10.40;9.32;;;24.00;54.00;;;24.33;46.64;97321.13;5020433;28;20054;-52
2022/07/25 02:38:18;;;;;;;13.18;10.13;;;24.00;54.10;;;24.31;46.68;97328.72;4988924;28;20353;-50
2022/07/25 02:40:48;;;;;;;11.80;9.80;;;23.90;54.30;;;24.30;46.68;97324.34;4988461;28;20062;-54
2022/07/25 02:43:17;;;;;;;10.50;9.40;;;23.90;54.30;;;24.29;46.90;97330.88;4988214;28;20046;-55
2022/07/25 02:45:45;;;;;;;10.35;9.35;;;23.90;54.30;;;24.29;46.94;97325.44;4988428;28;20356;-55
2022/07/25 02:48:13;;;;;;;10.52;9.52;;;23.90;54.30;;;24.29;46.78;97325.44;4987484;28;20273;-51
2022/07/25 02:50:41;;;;;;;12.07;10.20;;;24.00;54.20;;;24.28;46.94;97321.06;4989156;28;20058;-55
2022/07/25 02:53:09;;;;;;;10.43;9.05;;;24.00;54.30;;;24.27;46.84;97324.03;5020267;28;20058;-54
2022/07/25 02:55:37;;;;;;;11.32;9.45;;;23.90;54.30;;;24.23;46.88;97317.47;4989264;28;20084;-53
2022/07/25 02:58:05;;;;;;;10.65;9.60;;;23.90;54.40;;;24.22;46.79;97322.09;4988364;28;20057;-51
2022/07/25 03:00:33;;;;;;;10.93;8.98;;;23.90;54.40;;;24.21;47.07;97317.72;4988163;28;20728;-52
2022/07/25 03:03:01;;;;;;;10.60;9.30;;;23.90;54.50;;;24.17;47.14;97319.31;4988227;28;20048;-50
2022/07/25 03:05:30;;;;;;;10.10;9.13;;;23.80;54.60;;;24.15;47.25;97314.13;4988965;28;20062;-53
2022/07/25 03:07:58;;;;;;;10.38;9.38;;;23.80;54.80;;;24.14;47.23;97312.50;4988180;28;20345;-54
2022/07/25 03:10:26;;;;;;;10.50;9.48;;;23.80;54.80;;;24.15;47.06;97308.69;4988287;28;20062;-54
2022/07/25 03:12:54;;;;;;;11.60;9.85;;;23.90;54.70;;;24.20;47.12;97307.94;4988798;28;20058;-54
2022/07/25 03:15:22;;;;;;;11.23;9.63;;;23.90;54.50;;;24.20;47.00;97305.22;4988130;28;20056;-53
2022/07/25 03:17:50;;;;;;;10.75;9.65;;;23.90;54.50;;;24.19;47.20;97303.56;4987442;28;20053;-51
2022/07/25 03:20:18;;;;;;;11.23;9.35;;;23.90;54.50;;;24.17;47.15;97303.84;4988127;28;20054;-51
2022/07/25 03:22:46;;;;;;;11.13;9.85;;;23.90;54.60;;;24.16;47.28;97299.47;4987035;28;20058;-51
2022/07/25 03:25:15;;;;;;;11.68;10.57;;;23.90;54.80;;;24.11;47.46;97307.56;5019178;28;20050;-55
2022/07/25 03:27:49;;;;;;;10.75;9.75;;;23.80;54.90;;;24.07;47.30;97301.00;4988405;28;20042;-55
2022/07/25 03:30:17;;;;;;;10.18;9.25;;;23.70;55.20;;;24.07;47.68;97287.41;4987328;28;20359;-51
2022/07/25 03:32:45;;;;;;;11.35;10.18;;;23.70;55.20;;;24.09;47.45;97289.88;4988937;28;20054;-50
2022/07/25 03:35:12;;;;;;;10.18;9.18;;;23.80;55.10;;;24.08;47.44;97288.22;4986714;28;20066;-51
2022/07/25 03:37:41;;;;;;;11.13;10.13;;;23.80;55.10;;;24.04;47.51;97284.38;4986635;28;20061;-53
2022/07/25 03:40:09;;;;;;;11.20;10.10;;;23.70;55.30;;;23.98;47.79;97291.66;4987131;28;20068;-52
2022/07/25 03:42:37;;;;;;;10.70;9.68;;;23.60;55.50;;;23.89;47.82;97291.31;4988008;28;20493;-52
2022/07/25 03:45:06;;;;;;;10.50;9.45;;;23.50;56.00;;;23.80;48.29;97292.84;4988723;28;20054;-53
2022/07/25 03:47:34;;;;;;;11.20;9.75;;;23.40;56.40;;;23.71;48.44;97284.31;4987615;28;20060;-54
2022/07/25 03:50:02;;;;;;;14.07;10.15;;;23.30;56.90;;;23.65;48.52;97285.31;4987137;28;20076;-53
2022/07/25 03:52:30;;;;;;;10.90;9.90;;;23.20;57.00;;;23.59;48.73;97279.00;4984889;28;20050;-53
2022/07/25 03:54:57;;;;;;;10.73;9.73;;;23.10;57.30;;;23.57;49.09;97280.31;4986849;28;20060;-53
2022/07/25 03:57:25;;;;;;;10.32;9.40;;;23.10;57.30;;;23.55;48.82;97272.44;4986187;28;20065;-52
2022/07/25 03:59:53;;;;;;;10.88;9.82;;;23.10;57.30;;;23.54;48.77;97272.69;4987713;28;20054;-55
2022/07/25 04:02:21;;;;;;;11.52;10.32;;;23.20;57.40;;;23.53;49.15;97274.56;4986685;28;20050;-51
2022/07/25 04:04:49;;;;;;;11.35;10.25;;;23.10;57.30;;;23.53;48.99;97265.59;4987297;28;20089;-53
2022/07/25 04:07:18;;;;;;;12.18;10.90;;;23.10;57.30;;;23.55;48.86;97263.44;4986092;28;20054;-53
2022/07/25 04:09:45;;;;;;;13.70;10.93;;;23.20;57.20;;;23.53;48.96;97265.59;4988946;28;20042;-50
2022/07/25 04:12:13;;;;;;;11.85;10.35;;;23.20;57.30;;;23.52;49.17;97270.22;4986669;28;20203;-51
2022/07/25 04:14:41;;;;;;;11.77;10.55;;;23.10;57.40;;;23.48;49.30;97266.38;4989684;28;20064;-50
2022/07/25 04:17:09;;;;;;;11.80;10.57;;;23.10;57.70;;;23.49;49.45;97261.75;4986768;28;20561;-53
2022/07/25 04:19:37;;;;;;;12.25;10.07;;;23.10;57.50;;;23.50;49.18;97256.06;4986793;28;20513;-52
2022/07/25 04:22:05;;;;;;;11.07;10.07;;;23.20;57.40;;;23.49;49.05;97256.31;4987282;28;20058;-50
2022/07/25 04:24:33;;;;;;;12.13;9.63;;;23.20;57.20;;;23.53;49.20;97260.16;4987252;28;20585;-53
2022/07/25 04:27:01;;;;;;;11.48;10.35;;;23.30;57.20;;;23.54;49.22;97254.47;4986089;28;20364;-55
2022/07/25 04:29:28;;;;;;;11.35;10.15;;;23.30;57.20;;;23.53;49.15;97252.03;4986333;28;20055;-53
2022/07/25 04:31:56;;;;;;;11.25;10.10;;;23.20;57.10;;;23.52;49.05;97251.19;4987566;28;20058;-50
2022/07/25 04:34:25;;;;;;;11.50;9.07;;;23.20;57.20;;;23.53;49.21;97252.81;4986958;28;20056;-51
2022/07/25 04:36:52;;;;;;;11.40;10.32;;;23.20;57.10;;;23.53;49.33;97257.44;4986536;28;20061;-52
2022/07/25 04:39:20;;;;;;;11.35;10.25;;;23.20;57.00;;;23.54;48.76;97261.81;4986472;28;20046;-52
2022/07/25 04:41:48;;;;;;;11.27;9.68;;;23.20;56.90;;;23.57;49.14;97253.16;4986567;28;20054;-53
2022/07/25 04:44:16;;;;;;;12.43;9.95;;;23.30;56.80;;;23.59;49.06;97256.44;4987047;28;20061;-54
2022/07/25 04:46:44;;;;;;;11.05;9.95;;;23.30;56.60;;;23.60;48.63;97258.09;4986850;28;20054;-55
2022/07/25 04:49:11;;;;;;;13.80;10.57;;;23.40;56.50;;;23.63;48.61;97254.03;4986560;28;20069;-52
2022/07/25 04:51:39;;;;;;;11.00;9.30;;;23.40;56.40;;;23.67;48.38;97247.84;4985864;28;20054;-53
2022/07/25 04:54:08;;;;;;;10.18;8.80;;;23.50;56.10;;;23.72;48.35;97247.88;4987317;28;20050;-53
2022/07/25 04:56:36;;;;;;;12.52;9.82;;;23.60;56.00;;;23.76;48.27;97250.91;4987229;28;20361;-51
2022/07/25 04:59:05;;;;;;;9.80;8.88;;;23.60;55.90;;;23.78;48.54;97249.59;4985536;28;20050;-51
2022/07/25 05:01:34;;;;;;;10.75;9.50;;;23.60;55.70;;;23.83;48.31;97248.84;4986301;28;20248;-52
2022/07/25 05:04:02;;;;;;;11.13;10.07;;;23.70;55.60;;;23.89;48.37;97247.00;4989863;28;20353;-52
2022/07/25 05:06:32;;;;;;;9.38;8.45;;;23.80;55.30;;;23.94;48.12;97238.88;4990210;28;20229;-54
2022/07/25 05:08:59;;;;;;;9.85;8.88;;;23.80;54.90;;;23.99;47.91;97238.94;4988988;28;20261;-53
2022/07/25 05:11:27;;;;;;;10.13;8.60;;;23.90;54.80;;;24.05;47.78;97254.22;4990377;28;20241;-52
2022/07/25 05:13:55;;;;;;;9.90;8.60;;;24.00;54.60;;;24.10;47.78;97248.03;4990719;28;20463;-52
2022/07/25 05:16:23;;;;;;;9.40;8.48;;;24.00;54.60;;;24.13;47.58;97244.78;4989413;28;20046;-54
2022/07/25 05:18:51;;;;;;;8.68;7.85;;;24.00;54.40;;;24.20;47.25;97247.31;4989554;28;20443;-49
2022/07/25 05:21:19;;;;;;;9.35;8.45;;;24.10;54.00;;;24.25;47.48;97242.69;4989817;28;20069;-50
2022/07/25 05:23:47;;;;;;;9.93;8.90;;;24.20;53.70;;;24.31;46.81;97243.56;4990450;28;20230;-49
2022/07/25 05:26:15;;;;;;;10.02;9.02;;;24.30;53.50;;;24.37;46.69;97248.00;4991730;28;20058;-52
2022/07/25 05:28:43;;;;;;;9.63;8.70;;;24.30;53.30;;;24.42;46.64;97249.94;4988788;28;20046;-53
2022/07/25 05:31:11;;;;;;;9.55;7.97;;;24.40;52.90;;;24.46;46.39;97243.69;4990138;28;20046;-51
2022/07/25 05:33:38;;;;;;;9.27;8.38;;;24.50;52.60;;;24.53;45.90;97243.53;4990179;28;20072;-51
2022/07/25 05:36:07;;;;;;;9.18;7.97;;;24.50;52.10;;;24.59;46.00;97238.94;4990531;28;20050;-49
2022/07/25 05:38:35;;;;;;;9.57;8.43;;;24.70;52.00;;;24.64;45.96;97239.78;4988604;28;20359;-49
2022/07/25 05:41:04;;;;;;;9.27;8.38;;;24.70;51.90;;;24.69;45.78;97239.81;4989866;28;20054;-51
2022/07/25 05:43:33;;;;;;;9.68;7.50;;;24.80;51.70;;;24.76;45.79;97239.59;4988339;28;20066;-52
2022/07/25 05:46:03;;;;;;;8.77;7.88;;;24.80;51.60;;;24.79;45.76;97239.06;4990531;28;20056;-53
2022/07/25 05:48:31;;;;;;;9.43;8.45;;;24.80;51.60;;;24.82;45.72;97238.53;4988588;28;20261;-53
2022/07/25 05:50:59;;;;;;;9.65;8.75;;;24.90;51.60;;;24.87;45.72;97238.59;4990061;28;20056;-50
2022/07/25 05:53:27;;;;;;;10.95;9.85;;;24.90;51.60;;;24.91;45.48;97231.53;4989573;28;20265;-54
2022/07/25 05:55:55;;;;;;;9.32;8.43;;;24.90;51.40;;;24.95;45.43;97231.78;4990331;28;20056;-54
2022/07/25 05:58:24;;;;;;;11.95;9.20;;;25.00;51.20;;;24.99;44.99;97226.66;4989084;28;20056;-56
2022/07/25 06:00:57;;;;;;;8.80;7.95;;;25.10;50.70;;;25.03;44.91;97222.31;4988382;28;20241;-49
2022/07/25 06:03:25;;;;;;;8.68;7.72;;;25.10;50.50;;;25.02;44.76;97216.03;4989306;28;20057;-53
2022/07/25 06:05:55;;;;;;;8.35;7.55;;;25.20;50.40;;;25.09;44.81;97224.00;4989813;28;20058;-51
2022/07/25 06:08:23;;;;;;;9.80;8.80;;;25.20;50.30;;;25.14;44.64;97224.00;4988999;28;20397;-56
2022/07/25 06:10:51;;;;;;;10.45;9.45;;;25.20;50.10;;;25.18;44.85;97216.94;4988472;28;20054;-55
2022/07/25 06:13:19;;;;;;;10.05;9.10;;;25.30;50.20;;;25.24;44.60;97217.81;4989148;28;20565;-51
2022/07/25 06:15:50;;;;;;;9.23;8.32;;;25.30;50.00;;;25.27;44.73;97215.38;4989545;28;20064;-52
2022/07/25 06:18:18;;;;;;;10.00;8.20;;;25.40;50.10;;;25.32;44.44;97215.41;4989148;28;20069;-53
2022/07/25 06:20:46;;;;;;;9.50;8.30;;;25.50;49.90;;;25.35;44.56;97214.84;4989018;28;20058;-50
2022/07/25 06:23:14;;;;;;;9.20;8.30;;;25.50;49.70;;;25.42;44.33;97216.53;4988242;28;20252;-53
2022/07/25 06:25:43;;;;;;;8.80;7.90;;;25.60;49.50;;;25.46;44.38;97215.72;4988026;28;20062;-52
2022/07/25 06:28:17;;;;;;;10.25;8.07;;;25.60;49.70;;;25.51;44.60;97214.91;5018028;28;20240;-51
2022/07/25 06:30:47;;;;;;;9.82;7.70;;;25.60;49.70;;;25.54;44.39;97212.47;4988913;28;20056;-51
2022/07/25 06:33:15;;;;;;;9.13;8.13;;;25.60;49.70;;;25.59;44.15;97213.56;4988838;28;20058;-50
2022/07/25 06:35:44;;;;;;;9.45;8.15;;;25.70;49.40;;;25.64;44.35;97213.59;4987141;28;20048;-51
2022/07/25 06:38:12;;;;;;;10.20;8.15;;;25.80;49.30;;;25.67;44.40;97211.16;4988813;28;20051;-50
2022/07/25 06:40:40;;;;;;;9.50;8.13;;;25.80;49.30;;;25.72;43.85;97215.78;4987565;28;20052;-52
2022/07/25 06:43:08;;;;;;;9.05;8.15;;;25.80;49.00;;;25.77;44.18;97217.72;4990077;28;20058;-50
2022/07/25 06:45:36;;;;;;;9.90;8.95;;;25.80;48.80;;;25.80;43.62;97219.88;5002024;28;20042;-48
2022/07/25 06:48:05;;;;;;;9.93;8.82;;;25.90;48.60;;;25.83;43.22;97213.91;4997030;28;20415;-49
2022/07/25 06:50:33;;;;;;;10.15;8.30;;;26.00;48.60;;;25.87;43.79;97215.00;4987934;28;20057;-47
2022/07/25 06:53:01;;;;;;;9.77;8.45;;;26.00;48.80;;;25.90;43.53;97219.91;4988897;28;20271;-47
2022/07/25 06:55:29;;;;;;;12.65;9.18;;;26.00;48.70;;;25.93;43.54;97216.66;4989314;28;20046;-50
2022/07/25 06:57:58;;;;;;;9.98;8.48;;;26.10;48.90;;;25.97;43.67;97206.03;4989467;28;20058;-48
2022/07/25 07:00:26;;;;;;;9.35;8.38;;;26.10;48.80;;;26.01;43.58;97201.69;4988469;28;20256;-51
2022/07/25 07:02:58;;;;;;;11.35;10.10;;;26.20;48.90;;;26.03;43.69;97194.84;4986741;28;20264;-47
2022/07/25 07:05:30;;;;;;;9.57;8.67;;;26.20;49.20;;;26.09;43.47;97199.25;4988544;28;20345;-49
2022/07/25 07:07:59;;;;;;;10.83;8.13;;;26.20;49.00;;;26.11;43.72;97207.97;4987814;28;20292;-47
2022/07/25 07:10:28;;;;;;;9.90;9.00;;;26.20;48.90;;;26.14;43.87;97209.34;4986356;28;20305;-47
2022/07/25 07:13:09;;;;;;;9.43;8.15;;;26.30;49.00;;;26.19;43.83;97216.69;4988301;28;20054;-49
2022/07/25 07:15:38;;;;;;;10.15;9.15;;;26.30;49.10;;;26.24;43.72;97220.25;4987211;28;20052;-48
2022/07/25 07:18:06;;;;;;;10.73;9.73;;;26.30;49.10;;;26.28;43.45;97213.13;4987116;28;20088;-49
2022/07/25 07:20:34;;;;;;;10.50;8.98;;;26.40;48.90;;;26.32;43.54;97206.03;4988219;28;20072;-46
2022/07/25 07:23:02;;;;;;;9.40;8.50;;;26.50;48.90;;;26.37;43.44;97212.63;4988737;28;20064;-48
2022/07/25 07:25:30;;;;;;;11.55;8.88;;;26.50;48.60;;;26.40;43.45;97206.59;4987590;28;20361;-51
2022/07/25 07:27:58;;;;;;;9.75;8.77;;;26.50;48.60;;;26.45;43.48;97210.13;4987696;28;20058;-49
2022/07/25 07:30:26;;;;;;;10.95;9.43;;;26.60;48.30;;;26.49;43.41;97204.94;4986349;28;20295;-50
2022/07/25 07:33:14;;;;;;;11.10;8.80;;;26.60;48.30;;;26.52;43.68;97205.22;4987387;28;20060;-49
2022/07/25 07:35:45;;;;;;;9.68;8.25;;;26.60;48.60;;;26.59;43.02;97202.22;4985359;28;20052;-50
2022/07/25 07:38:13;;;;;;;10.82;9.43;;;26.70;48.30;;;26.64;43.44;97198.69;4987934;28;20046;-49
2022/07/25 07:40:41;;;;;;;9.73;8.38;;;26.80;48.10;;;26.69;43.17;97202.22;4987122;28;20364;-51
2022/07/25 07:43:09;;;;;;;10.48;9.50;;;26.80;47.90;;;26.74;42.94;97197.84;4987747;28;20226;-49
2022/07/25 07:45:37;;;;;;;11.77;9.48;;;26.90;47.50;;;26.78;42.61;97190.75;4988305;28;20256;-50
2022/07/25 07:48:06;;;;;;;9.23;8.32;;;26.90;47.50;;;26.83;42.31;97193.44;4988563;28;20280;-49
2022/07/25 07:50:34;;;;;;;10.25;9.25;;;26.90;47.10;;;26.89;42.75;97190.44;4987370;28;20060;-51
2022/07/25 07:53:02;;;;;;;9.95;8.95;;;27.00;47.70;;;26.96;42.66;97200.25;4988440;28;20072;-47
2022/07/25 07:55:47;;;;;;;9.77;8.88;;;27.10;47.70;;;27.01;41.99;97195.59;4988727;28;20341;-48
2022/07/25 07:58:17;;;;;;;10.35;9.27;;;27.20;47.40;;;27.04;42.00;97192.28;4987617;28;20050;-50
2022/07/25 08:00:48;;;;;;;10.55;9.48;;;27.20;47.30;;;27.09;42.26;97186.00;5009696;28;20056;-50
2022/07/25 08:03:20;;;;;;;9.60;8.70;;;27.30;47.50;;;27.17;42.04;97188.16;5011963;28;20062;-51
2022/07/25 08:05:50;;;;;;;9.70;8.70;;;27.30;47.20;;;27.26;42.16;97191.97;5016020;28;20426;-51
2022/07/25 08:08:18;;;;;;;11.27;9.63;;;27.40;47.00;;;27.32;41.52;97190.03;5014525;28;20359;-55
2022/07/25 08:10:48;;;;;;;9.23;8.23;;;27.40;46.60;;;27.38;41.47;97199.03;5016533;28;20037;-53
2022/07/25 08:13:27;;;;;;;9.15;8.32;;;27.50;45.90;;;27.40;40.38;97200.38;5013548;28;20042;-55
2022/07/25 08:15:59;;;;;;;9.70;8.48;;;27.60;45.20;;;27.44;40.20;97195.97;5013821;28;20307;-55
2022/07/25 08:18:29;;;;;;;9.50;8.60;;;27.70;44.20;;;27.49;39.66;97192.38;5006029;28;20098;-52
2022/07/25 08:20:57;;;;;;;10.73;9.55;;;27.80;43.30;;;27.58;40.09;97192.63;5004607;28;20050;-54
2022/07/25 08:23:26;;;;;;;9.63;8.65;;;27.90;43.60;;;27.63;40.11;97195.34;5006261;28;20066;-55
2022/07/25 08:25:54;;;;;;;9.05;8.10;;;28.00;43.70;;;27.71;39.80;97192.00;5006100;28;20064;-55
2022/07/25 08:28:22;;;;;;;10.30;8.73;;;28.20;43.10;;;27.81;39.77;97189.19;5005845;28;20061;-63
2022/07/25 08:30:50;;;;;;;9.95;9.05;;;28.30;43.40;;;27.87;39.58;97190.78;5007063;28;20069;-54
2022/07/25 08:33:18;;;;;;;9.02;8.13;;;28.30;43.20;;;27.93;39.64;97196.25;5004366;28;20058;-59
2022/07/25 08:35:53;;;;;;;9.98;9.07;;;28.30;43.30;;;27.97;38.83;97200.88;5006631;28;20271;-58
2022/07/25 08:38:23;;;;;;;11.27;9.45;;;28.40;41.90;;;28.03;39.00;97201.66;5008444;28;20050;-59
2022/07/25 08:40:53;;;;;;;10.38;9.48;;;28.30;42.80;;;28.07;38.72;97199.97;5011718;28;20603;-57
2022/07/25 08:43:21;;;;;;;9.43;8.40;;;28.40;42.90;;;28.11;38.97;97203.81;5011555;28;20639;-56
2022/07/25 08:45:53;;;;;;;10.05;9.13;;;28.50;42.80;;;28.18;38.70;97201.53;5010932;28;20057;-58
2022/07/25 08:48:25;;;;;;;10.15;9.25;;;28.60;42.60;;;28.25;39.11;97207.50;5009979;28;20053;-57
2022/07/25 08:50:55;;;;;;;9.33;8.43;;;28.70;42.50;;;28.34;38.57;97201.41;5009109;28;20056;-59
2022/07/25 08:53:25;;;;;;;10.18;9.27;;;28.80;42.00;;;28.41;37.85;97199.97;5009669;28;20064;-57
2022/07/25 08:56:06;;;;;;;12.60;9.00;;;28.90;41.00;;;28.47;37.90;97201.56;5009298;28;20049;-60
2022/07/25 08:58:44;;;;;;;9.45;8.57;;;28.90;40.80;;;28.53;38.43;97201.56;5009730;28;20046;-61
2022/07/25 09:01:12;;;;;;;14.15;9.45;;;29.00;41.90;;;28.55;38.21;97208.38;5009433;28;20061;-60
2022/07/25 09:03:42;;;;;;;15.95;9.25;;;29.00;41.60;;;28.60;37.77;97204.78;5009845;28;20049;-60
2022/07/25 09:06:19;;;;;;;9.52;8.63;;;29.00;40.90;;;28.66;36.77;97209.91;5010200;28;20072;-60
2022/07/25 09:08:59;;;;;;;9.57;8.77;;;29.10;39.50;;;28.70;37.01;97193.72;5010079;28;20050;-60
2022/07/25 09:11:35;;;;;;;10.15;9.25;;;29.10;40.20;;;28.74;37.29;97196.69;5008827;28;20244;-60
2022/07/25 09:14:10;;;;;;;11.20;8.80;;;29.10;40.80;;;28.78;37.65;97195.81;5009112;28;20298;-60
2022/07/25 09:16:44;;;;;;;10.00;9.00;;;29.20;41.00;;;28.88;37.42;97196.81;5009313;28;20056;-61
2022/07/25 09:19:21;;;;;;;12.63;8.70;;;29.30;40.20;;;28.90;36.39;97189.94;5010310;28;20057;-60
2022/07/25 09:22:05;;;;;;;9.60;8.70;;;29.40;39.20;;;28.96;36.88;97185.22;5009505;28;20217;-60
2022/07/25 09:24:44;;;;;;;12.77;7.55;;;29.40;39.20;;;29.02;35.17;97181.31;5010085;28;20075;-60
2022/07/25 09:27:12;;;;;;;9.18;8.25;;;29.60;37.50;;;29.12;35.32;97186.72;5007927;28;20053;-60
2022/07/25 09:29:44;;;;;;;9.55;8.75;;;29.80;37.60;;;29.23;35.93;97179.16;5009074;28;20058;-60
2022/07/25 09:32:21;;;;;;;9.13;8.32;;;29.90;38.40;;;29.32;35.03;97182.09;5007585;28;20045;-60
2022/07/25 09:34:50;;;;;;;8.38;7.47;;;30.00;37.80;;;29.43;34.86;97176.16;5009424;28;20057;-60
2022/07/25 09:37:25;;;;;;;8.32;7.63;;;30.10;37.50;;;29.54;33.28;97171.34;5009281;28;20378;-55
2022/07/25 09:39:53;;;;;;;10.40;7.80;;;30.30;36.40;;;29.64;34.29;97170.38;5009781;28;20041;-60
2022/07/25 09:42:31;;;;;;;8.10;7.40;;;30.30;36.50;;;29.66;33.97;97170.91;5009141;28;20049;-60
2022/07/25 09:45:11;;;;;;;8.82;8.07;;;30.30;35.90;;;29.78;32.33;97160.34;5030588;28;20049;-60
2022/07/25 09:47:56;;;;;;;8.77;8.02;;;30.60;34.10;;;29.86;33.15;97172.56;5027571;28;20076;-60
2022/07/25 09:50:27;;;;;;;8.68;7.82;;;30.50;35.00;;;29.90;33.36;97170.88;5028606;28;20061;-60
2022/07/25 09:52:59;;;;;;;7.53;6.82;;;30.50;35.50;;;29.96;32.53;97163.38;5020338;28;20240;-59
2022/07/25 09:55:29;;;;;;;8.80;7.90;;;30.70;34.30;;;29.99;32.58;97162.75;5010860;28;20340;-60
2022/07/25 09:57:57;;;;;;;8.75;7.80;;;30.60;34.70;;;30.04;32.61;97165.44;5008483;28;20046;-61
2022/07/25 10:00:28;;;;;;;7.95;6.90;;;30.60;34.80;;;30.06;31.97;97162.38;5009736;28;20540;-62
2022/07/25 10:03:17;;;;;;;8.10;7.28;;;30.60;34.10;;;30.10;30.99;97158.72;5010274;28;20049;-59
2022/07/25 10:06:13;;;;;;;8.32;7.32;;;30.80;32.50;;;30.18;31.66;97149.81;5007133;28;20056;-60
2022/07/25 10:08:42;;;;;;;9.27;7.45;;;30.80;32.90;;;30.22;31.45;97150.88;5009501;28;20433;-44
2022/07/25 10:11:26;;;;;;;8.43;7.57;;;30.90;33.30;;;30.36;31.12;97147.34;5008891;28;20079;-45
2022/07/25 10:13:55;;;;;;;6.78;6.18;;;31.10;32.80;;;30.42;30.40;97146.97;5009180;28;20053;-46
2022/07/25 10:16:25;;;;;;;7.75;6.95;;;31.10;31.40;;;30.50;30.32;97150.13;5008484;28;20045;-47
2022/07/25 10:18:57;;;;;;;7.10;6.50;;;31.30;31.30;;;30.61;29.64;97141.41;5008448;28;20285;-47
2022/07/25 10:21:26;;;;;;;6.70;6.00;;;31.40;31.60;;;30.68;29.65;97131.94;5007894;28;20280;-46
2022/07/25 10:24:09;;;;;;;6.18;5.57;;;31.30;31.20;;;30.74;28.05;97131.53;5009199;28;20277;-47
2022/07/25 10:26:49;;;;;;;;;;;31.60;29.40;;;30.84;27.33;97136.00;5009215;28;20042;-45
2022/07/25 10:29:17;;;;;;;7.22;6.53;;;31.80;28.70;;;30.96;28.13;97130.88;5009108;28;19925;-45